Terminal Aerodrome Forecast
Issued by NWS

Home | Current Version | Previous Version | Text Only | Print | Product List | Glossary Off
Versions: 1 2 3 4 5 6 7 8 9 10 11 12 13 14 15 16 17

987
FTUS43 KMPX 061402 AAB
TAFRNH
TAF AMD
KRNH 061402Z 0614/0712 21008KT P6SM OVC009
     FM061700 19010KT P6SM SCT012 BKN060
     FM062300 20012G18KT P6SM OVC070 WS020/27040KT=

USA.gov is the U.S. government's official web portal to all federal, state and local government web resources and services.